LKPRLKVO

Guest
Details From LKPR - Praha - Ruzyne
To LKVO - Vodochody
Flight Number -
Tags generated
Created
Modified
Stats Distance 9 nm / 17 km
Max Altitude 100 ft / 30 m
Waypoints 3
Social Downloads 5
Likes 0
Share VATSIM

Download

Looking for another format? Having issues loading an existing format? Contact us
Advertisement - Login to hide

Notes

Basic altitude profile: - Ascent Rate: 2500ft/min - Ascent Speed: 250kts - Cruise Altitude: 35000ft - Cruise Speed: 420kts - Descent Rate: 1500ft/min - Descent Speed: 250kts Options: - Use NATs: yes - Use PACOTS: yes - Use low airways: yes - Use high airways: yes

Route

LKPR OKL LKVO

ID Type Via Altitude Latitude Longitude Leg Dist Tot Dist Heading (true) Name
O LKPR APT - 0 ft / 0 m 50.10114˚ 14.26296˚ - 0 nm - Praha - Ruzyne
OKL VOR - 100 ft / 30 m 50.09648˚ 14.26281˚ 0 nm 0 nm 181° / 181° PRAHA VOR-DME
O LKVO APT - 0 ft / 0 m 50.21668˚ 14.39554˚ 8 nm 9 nm 35° / 35° Vodochody

Altitude Profile

Advertisement - Login to hide

LKPR

Details ICAO LKPR (PRG)
Name Praha - Ruzyne
Region Czech Republic
Timezone Europe/Prague (UTC+2.0)
Stats Elevation 1,246 ft / 380 m (AMSL)
Location 50.101144° 14.262963°
Runways 3
Magnetic Variation 3.918° E

METAR

LKPR 250730Z 04005KT CAVOK 18/12 Q1020 NOSIG

Decode

TAF

TAF LKPR 242300Z 2500/2606 VRB02KT 9999 SCT040 TEMPO 2500/2502 -SHRA SCT030TCU TEMPO 2502/2506 5000 BR SCT010 BECMG 2506/2508 06011KT PROB30 TEMPO 2511/2519 8000 SHRA SCT025TCU BECMG 2519/2521 VRB02KT

Decode

Departure Runways

ID Width Length Bearing (true) Bearing (mag) Surface Threshold Offset Overrun Length
04 197 ft / 60 m 6,932 ft / 2,113 m 36.80° 32.88° Asphalt 0 ft / 0 m 0 ft / 0 m
06 148 ft / 45 m 12,160 ft / 3,706 m 64.92° 61.00° Concrete 0 ft / 0 m 0 ft / 0 m
12 148 ft / 45 m 10,622 ft / 3,238 m 126.99° 123.07° Concrete 0 ft / 0 m 0 ft / 0 m
22 197 ft / 60 m 6,932 ft / 2,113 m 216.81° 212.89° Asphalt 0 ft / 0 m 591 ft / 180 m
24 148 ft / 45 m 12,160 ft / 3,706 m 244.96° 241.04° Concrete 0 ft / 0 m 0 ft / 0 m
30 148 ft / 45 m 10,622 ft / 3,238 m 307.01° 303.09° Concrete 0 ft / 0 m 0 ft / 0 m

LKVO

Details ICAO LKVO
Name Vodochody
Region Czech Republic
Timezone Europe/Prague (UTC+2.0)
Stats Elevation 919 ft / 280 m (AMSL)
Location 50.216677° 14.395543°
Runways 1
Magnetic Variation 3.959° E

METAR

LKVO 250700Z 08003KT 020V130 CAVOK 18/10 Q1020

Decode

TAF

Not found

Destination Runways

ID Width Length Bearing (true) Bearing (mag) Surface Threshold Offset Overrun Length
10 148 ft / 45 m 8,156 ft / 2,486 m 104.92° 100.96° Asphalt 0 ft / 0 m 0 ft / 0 m
28 148 ft / 45 m 8,156 ft / 2,486 m 284.95° 280.99° Asphalt 0 ft / 0 m 0 ft / 0 m

Approach Navaids

Runway Type Ident Frequency Range Bearing (true) Bearing (mag) Slope Elevation
28 Localiser VO 110.75 MHz 18 nm / 33 km 285.39° 281.43° - 919 ft / 280 m (AMSL)
28 Glidescope VO 110.75 MHz 10 nm / 19 km 284.94° 280.98° 3.00° 919 ft / 280 m (AMSL)
28 DME VO 110.75 MHz 18 nm / 33 km - - - 919 ft / 280 m (AMSL)

Popular Alternatives